This is the latest recevied weather packets stored in our database for station/object AA6HF. If no packets are shown the sender has not sent any weather packets the latest 10 day(s).
| Time | Temp. | Humidity | Pressure | Rain* | Wind** | Luminosity | Snow |
|---|---|---|---|---|---|---|---|
| 1777306275 | 20.56° C | 30% | 1012.5 hPa | 0 mm | - | - | - |
| 1777305975 | 20.56° C | 30% | 1012.5 hPa | 0 mm | - | - | - |
| 1777305675 | 20.56° C | 29% | 1012.5 hPa | 0 mm | - | - | - |
| 1777305375 | 21.11° C | 30% | 1012.4 hPa | 0 mm | - | - | - |
| 1777305075 | 20.56° C | 30% | 1012.4 hPa | 0 mm | - | - | - |
| 1777304775 | 20° C | 31% | 1012.4 hPa | 0 mm | - | - | - |
| 1777304475 | 20.56° C | 31% | 1012.3 hPa | 0 mm | - | - | - |
| 1777304175 | 20° C | 32% | 1012.4 hPa | 0 mm | - | - | - |
| 1777303875 | 20° C | 33% | 1012.4 hPa | 0 mm | - | - | - |
| 1777303576 | 18.89° C | 36% | 1012.4 hPa | 0 mm | - | - | - |
| 1777303276 | 18.33° C | 37% | 1012.4 hPa | 0 mm | - | - | - |
| 1777302976 | 18.33° C | 37% | 1012.3 hPa | 0 mm | - | - | - |
| 1777302676 | 18.33° C | 38% | 1012.2 hPa | 0 mm | - | - | - |
| 1777302376 | 17.78° C | 36% | 1012.2 hPa | 0 mm | - | - | - |
| 1777302076 | 17.22° C | 38% | 1012.2 hPa | 0 mm | - | - | - |
| 1777301776 | 17.22° C | 39% | 1012.1 hPa | 0 mm | - | - | - |
| 1777301476 | 16.67° C | 41% | 1012.1 hPa | 0 mm | - | - | - |
| 1777301176 | 16.11° C | 42% | 1012 hPa | 0 mm | - | - | - |
| 1777300876 | 15° C | 46% | 1012 hPa | 0 mm | - | - | - |
| 1777300576 | 15° C | 47% | 1012 hPa | 0 mm | - | - | - |
| 1777300276 | 13.89° C | 51% | 1011.9 hPa | 0 mm | - | - | - |
| 1777299976 | 13.33° C | 53% | 1011.9 hPa | 0 mm | - | - | - |
| 1777299676 | 12.78° C | 55% | 1011.9 hPa | 0 mm | - | - | - |
| 1777299376 | 12.22° C | 56% | 1011.9 hPa | 0 mm | - | - | - |
| 1777299076 | 12.22° C | 58% | 1011.7 hPa | 0 mm | - | - | - |
* Rain latest hour (hover to see other rain measurements)
** Current wind speed in m/s (hover to see current wind gust speed)